createdAt,value
2022-12-28T00:00:03.914Z,24.17
2022-12-28T00:02:34.581Z,23.70
2022-12-28T00:05:02.748Z,23.87
2022-12-28T00:07:32.440Z,23.77
2022-12-28T00:10:00.552Z,24.23
2022-12-28T00:12:30.345Z,24.23
2022-12-28T00:14:58.605Z,23.93
2022-12-28T00:17:26.748Z,25.17
2022-12-28T00:19:57.472Z,24.43
2022-12-28T00:22:25.615Z,24.93
2022-12-28T00:24:59.478Z,24.30
2022-12-28T00:27:27.564Z,25.13
2022-12-28T00:29:55.717Z,25.23
2022-12-28T00:32:27.290Z,23.97
2022-12-28T00:34:55.553Z,24.37
2022-12-28T00:37:23.727Z,24.03
2022-12-28T00:39:51.947Z,24.45
2022-12-28T00:42:24.322Z,24.80
2022-12-28T00:44:52.541Z,24.20
2022-12-28T00:47:20.718Z,24.67
2022-12-28T00:49:48.997Z,24.43
2022-12-28T00:52:17.181Z,24.50
2022-12-28T00:54:46.957Z,25.20
2022-12-28T00:57:15.255Z,26.03
2022-12-28T00:59:47.759Z,25.40
2022-12-28T01:02:15.947Z,24.17
2022-12-28T01:04:46.382Z,26.20
2022-12-28T01:07:15.021Z,25.63
2022-12-28T01:09:43.297Z,24.67
2022-12-28T01:12:11.494Z,24.42
2022-12-28T01:14:39.757Z,23.75
2022-12-28T01:17:09.240Z,24.23
2022-12-28T01:19:40.339Z,24.90
2022-12-28T01:22:10.281Z,24.77
2022-12-28T01:24:39.339Z,25.25
2022-12-28T01:27:07.584Z,25.23
2022-12-28T01:29:36.300Z,24.48
2022-12-28T01:32:09.218Z,23.95
2022-12-28T01:34:37.648Z,24.83
2022-12-28T01:37:06.211Z,25.13
2022-12-28T01:39:36.761Z,24.65
2022-12-28T01:42:05.243Z,27.10
2022-12-28T01:44:44.525Z,26.85
2022-12-28T01:47:18.214Z,27.20
2022-12-28T01:49:52.276Z,26.73
2022-12-28T01:52:25.087Z,27.08
2022-12-28T01:54:57.012Z,27.17
2022-12-28T01:57:29.000Z,27.13
2022-12-28T02:00:01.977Z,27.42
2022-12-28T02:02:32.852Z,27.40
2022-12-28T02:05:02.380Z,26.65
2022-12-28T02:07:39.199Z,26.92
2022-12-28T02:10:43.136Z,27.20
2022-12-28T02:12:58.832Z,26.13
2022-12-28T02:15:27.256Z,26.70
2022-12-28T02:17:57.968Z,26.50
2022-12-28T02:20:32.590Z,26.75
2022-12-28T02:23:46.393Z,27.25
2022-12-28T02:26:40.116Z,26.73
2022-12-28T02:29:35.334Z,26.52
2022-12-28T02:32:14.607Z,26.83
2022-12-28T02:34:51.152Z,26.63
2022-12-28T02:37:24.806Z,26.52
2022-12-28T02:39:57.970Z,25.98
2022-12-28T02:42:27.784Z,25.63
2022-12-28T02:45:16.564Z,25.33
2022-12-28T02:48:04.422Z,25.38
2022-12-28T02:50:43.146Z,25.50
2022-12-28T02:53:28.010Z,25.75
2022-12-28T02:56:08.560Z,25.73
2022-12-28T02:59:13.755Z,26.48
2022-12-28T03:02:09.033Z,25.67
2022-12-28T03:04:52.823Z,25.02
2022-12-28T03:07:45.736Z,24.73
2022-12-28T03:10:18.080Z,24.98
2022-12-28T03:12:51.387Z,24.88
2022-12-28T03:15:30.635Z,25.50
2022-12-28T03:18:24.566Z,24.55
2022-12-28T03:21:11.922Z,24.45
2022-12-28T03:24:00.237Z,24.33
2022-12-28T03:26:51.870Z,24.80
2022-12-28T03:29:41.128Z,24.48
2022-12-28T03:32:12.827Z,24.20
2022-12-28T03:34:42.906Z,23.98
2022-12-28T03:37:19.215Z,23.58
2022-12-28T03:39:52.391Z,23.90
2022-12-28T03:42:45.093Z,22.38
2022-12-28T03:45:45.738Z,22.90
2022-12-28T03:48:10.318Z,22.77
2022-12-28T03:50:43.543Z,23.55
2022-12-28T03:53:12.081Z,22.70
2022-12-28T03:55:41.100Z,22.75
2022-12-28T03:58:09.765Z,22.75
2022-12-28T04:00:40.977Z,22.70
2022-12-28T04:03:09.443Z,22.10
2022-12-28T04:05:39.255Z,22.60
2022-12-28T04:08:07.435Z,21.75
2022-12-28T04:10:35.824Z,22.17
2022-12-28T04:13:04.125Z,21.65
2022-12-28T04:15:32.383Z,22.33
2022-12-28T04:18:02.325Z,22.60
2022-12-28T04:20:30.688Z,22.52
2022-12-28T04:23:00.718Z,22.17
2022-12-28T04:25:28.860Z,22.27
2022-12-28T04:27:57.177Z,22.65
2022-12-28T04:30:25.630Z,21.60
2022-12-28T04:32:54.227Z,21.70
2022-12-28T04:35:22.389Z,21.70
2022-12-28T04:37:50.456Z,21.10
2022-12-28T04:40:20.209Z,21.67
2022-12-28T04:42:48.371Z,21.70
2022-12-28T04:45:21.794Z,20.88
2022-12-28T04:47:50.473Z,20.60
2022-12-28T04:50:18.798Z,21.05
2022-12-28T04:52:47.068Z,20.35
2022-12-28T04:55:32.924Z,19.55
2022-12-28T04:58:02.981Z,19.35
2022-12-28T05:00:31.211Z,20.73
2022-12-28T05:03:00.555Z,19.08
2022-12-28T05:05:29.822Z,18.90
2022-12-28T05:08:02.181Z,18.85
2022-12-28T05:10:30.952Z,19.25
2022-12-28T05:12:59.801Z,19.08
2022-12-28T05:15:34.708Z,20.10
2022-12-28T05:18:04.725Z,19.23
2022-12-28T05:20:32.867Z,19.48
2022-12-28T05:23:01.109Z,19.02
2022-12-28T05:25:29.473Z,19.48
2022-12-28T05:27:58.756Z,19.38
2022-12-28T05:30:28.177Z,18.83
2022-12-28T05:33:00.770Z,18.92
2022-12-28T05:35:29.161Z,18.77
2022-12-28T05:38:01.643Z,18.45
2022-12-28T05:40:29.745Z,18.52
2022-12-28T05:42:58.143Z,18.63
2022-12-28T05:45:26.543Z,18.60
2022-12-28T05:47:57.902Z,19.38
2022-12-28T05:50:26.204Z,18.52
2022-12-28T05:52:54.554Z,18.75
2022-12-28T05:55:23.898Z,18.70
2022-12-28T05:57:52.615Z,18.35
2022-12-28T06:00:21.001Z,18.10
2022-12-28T06:02:49.392Z,18.13
2022-12-28T06:05:21.252Z,17.83
2022-12-28T06:07:49.595Z,17.92
2022-12-28T06:10:17.874Z,18.33
2022-12-28T06:12:46.007Z,19.05
2022-12-28T06:15:15.335Z,18.13
2022-12-28T06:17:43.571Z,18.65
2022-12-28T06:20:12.966Z,17.92
2022-12-28T06:22:42.794Z,17.95
2022-12-28T06:25:11.724Z,17.42
2022-12-28T06:27:40.347Z,17.40
2022-12-28T06:30:10.149Z,18.15
2022-12-28T06:32:38.191Z,17.58
2022-12-28T06:35:07.236Z,17.13
2022-12-28T06:37:35.524Z,16.38
2022-12-28T06:40:06.724Z,17.55
2022-12-28T06:42:35.141Z,17.60
2022-12-28T06:45:03.355Z,17.90
2022-12-28T06:47:42.027Z,17.08
2022-12-28T06:50:11.226Z,17.55
2022-12-28T06:53:12.229Z,17.40
2022-12-28T06:56:02.925Z,17.90
2022-12-28T06:59:03.199Z,17.30
2022-12-28T07:01:34.210Z,17.67
2022-12-28T07:04:11.741Z,17.45
2022-12-28T07:06:43.364Z,17.08
2022-12-28T07:09:24.602Z,17.80
2022-12-28T07:11:54.530Z,17.83
2022-12-28T07:14:23.435Z,16.08
2022-12-28T07:16:51.750Z,16.35
2022-12-28T07:19:20.028Z,17.70
2022-12-28T07:21:51.228Z,16.73
2022-12-28T07:24:22.563Z,17.23
2022-12-28T07:26:50.957Z,17.00
2022-12-28T07:29:20.704Z,16.90
2022-12-28T07:31:48.921Z,16.98
2022-12-28T07:34:17.214Z,17.63
2022-12-28T07:36:45.749Z,17.00
2022-12-28T07:39:14.099Z,17.92
2022-12-28T07:41:42.510Z,17.60
2022-12-28T07:44:10.737Z,17.83
2022-12-28T07:46:40.612Z,18.25
2022-12-28T07:49:09.285Z,17.98
2022-12-28T07:51:39.844Z,17.95
2022-12-28T07:54:11.634Z,18.15
2022-12-28T07:59:07.919Z,18.40
2022-12-28T08:01:37.859Z,18.38
2022-12-28T08:04:11.664Z,18.63
2022-12-28T08:06:42.576Z,17.65
2022-12-28T08:09:13.317Z,19.38
2022-12-28T08:11:44.851Z,19.83
2022-12-28T08:14:13.699Z,20.42
2022-12-28T08:16:44.141Z,19.58
2022-12-28T08:19:14.511Z,20.42
2022-12-28T08:21:44.562Z,19.52
2022-12-28T08:24:15.826Z,19.33
2022-12-28T08:26:44.920Z,19.90
2022-12-28T08:29:17.188Z,19.50
2022-12-28T08:31:46.509Z,19.80
2022-12-28T08:34:19.149Z,19.42
2022-12-28T08:36:47.616Z,19.58
2022-12-28T08:39:15.819Z,19.88
2022-12-28T08:41:44.161Z,19.90
2022-12-28T08:44:12.313Z,18.88
2022-12-28T08:46:41.610Z,19.02
2022-12-28T08:49:10.063Z,19.08
2022-12-28T08:51:41.629Z,19.02
2022-12-28T08:54:11.070Z,19.02
2022-12-28T08:56:40.979Z,18.90
2022-12-28T08:59:09.631Z,18.38
2022-12-28T09:01:44.320Z,18.95
2022-12-28T09:04:15.944Z,18.52
2022-12-28T09:06:45.753Z,18.58
2022-12-28T09:09:16.019Z,19.30
2022-12-28T09:11:44.992Z,18.83
2022-12-28T09:14:24.493Z,18.45
2022-12-28T09:16:53.997Z,18.38
2022-12-28T09:19:34.035Z,19.10
2022-12-28T09:22:03.836Z,19.08
2022-12-28T09:24:32.121Z,18.95
2022-12-28T09:27:01.083Z,19.70
2022-12-28T09:29:29.147Z,19.40
2022-12-28T09:31:58.190Z,18.55
2022-12-28T09:34:37.259Z,18.60
2022-12-28T09:37:08.662Z,18.02
2022-12-28T09:39:36.936Z,18.23
2022-12-28T09:42:07.937Z,18.23
2022-12-28T09:44:57.959Z,18.38
2022-12-28T09:47:31.863Z,16.88
2022-12-28T09:50:25.330Z,17.60
2022-12-28T09:53:16.578Z,17.20
2022-12-28T09:55:52.513Z,17.75
2022-12-28T09:58:21.971Z,21.48
2022-12-28T10:00:52.425Z,18.00
2022-12-28T10:03:24.634Z,18.70
2022-12-28T10:05:53.692Z,17.98
2022-12-28T10:08:25.458Z,18.75
2022-12-28T10:10:55.305Z,18.52
2022-12-28T10:16:19.745Z,18.75
2022-12-28T10:18:49.657Z,19.00
2022-12-28T10:21:20.474Z,18.83
2022-12-28T10:26:42.072Z,18.40
2022-12-28T10:29:16.433Z,17.85
2022-12-28T10:31:45.150Z,18.35
2022-12-28T10:34:17.702Z,18.55
2022-12-28T10:36:46.429Z,18.23
2022-12-28T10:39:22.034Z,18.33
2022-12-28T10:41:50.829Z,17.95
2022-12-28T10:44:40.404Z,17.45
2022-12-28T10:58:32.982Z,17.42
2022-12-28T11:04:19.324Z,17.20
2022-12-28T11:07:18.534Z,17.00
2022-12-28T11:13:34.445Z,17.00
2022-12-28T11:19:57.459Z,16.58
2022-12-28T11:22:51.578Z,16.58
2022-12-28T11:26:07.190Z,16.77
2022-12-28T11:39:42.711Z,16.23
2022-12-28T11:42:47.042Z,16.05
2022-12-28T11:46:10.374Z,15.48
2022-12-28T11:49:14.092Z,16.50
2022-12-28T11:52:22.901Z,15.98
2022-12-28T11:55:47.503Z,16.48
2022-12-28T11:59:04.967Z,14.77
2022-12-28T12:02:47.475Z,14.88
2022-12-28T12:12:54.338Z,16.00
2022-12-28T12:16:16.336Z,15.80
2022-12-28T12:19:02.715Z,16.17
2022-12-28T12:22:09.235Z,15.93
2022-12-28T12:24:50.343Z,15.35
2022-12-28T12:27:48.335Z,17.38
2022-12-28T12:30:39.426Z,16.42
2022-12-28T12:34:00.993Z,16.02
2022-12-28T12:37:12.818Z,16.45
2022-12-28T12:40:34.477Z,15.13
2022-12-28T12:44:12.976Z,18.08
2022-12-28T12:47:54.990Z,16.13
2022-12-28T12:51:36.379Z,15.50
2022-12-28T12:55:39.733Z,16.45
2022-12-28T12:58:06.321Z,15.65
2022-12-28T13:01:07.638Z,15.73
2022-12-28T13:03:54.705Z,15.82
2022-12-28T13:06:59.025Z,16.20
2022-12-28T13:09:48.013Z,16.20
2022-12-28T13:12:24.375Z,16.10
2022-12-28T13:19:30.161Z,17.42
2022-12-28T13:22:44.034Z,15.95
2022-12-28T13:25:54.331Z,16.75
2022-12-28T13:28:54.362Z,15.85
2022-12-28T13:31:42.790Z,15.45
2022-12-28T13:38:26.536Z,16.50
2022-12-28T13:41:19.116Z,15.52
2022-12-28T13:48:02.568Z,16.98
2022-12-28T13:51:23.226Z,17.40
2022-12-28T13:54:51.506Z,16.80
2022-12-28T13:57:50.326Z,17.20
2022-12-28T14:00:52.338Z,17.13
2022-12-28T14:03:50.292Z,17.58
2022-12-28T14:06:37.076Z,17.60
2022-12-28T14:09:55.769Z,18.02
2022-12-28T14:13:12.060Z,17.65
2022-12-28T14:16:02.426Z,17.95
2022-12-28T14:22:23.131Z,19.35
2022-12-28T14:25:47.225Z,18.73
2022-12-28T14:29:01.676Z,18.95
2022-12-28T14:31:54.462Z,18.40
2022-12-28T14:34:59.308Z,18.85
2022-12-28T14:37:54.582Z,19.27
2022-12-28T14:43:53.821Z,18.80
2022-12-28T14:46:59.587Z,18.75
2022-12-28T14:49:57.018Z,18.45
2022-12-28T14:56:43.390Z,18.77
2022-12-28T15:00:02.215Z,19.70
2022-12-28T15:03:06.042Z,20.55
2022-12-28T15:06:11.208Z,19.92
2022-12-28T15:08:56.074Z,19.95
2022-12-28T15:11:54.815Z,19.85
2022-12-28T15:14:41.438Z,20.25
2022-12-28T15:17:33.296Z,19.65
2022-12-28T15:20:19.393Z,19.67
2022-12-28T15:23:12.694Z,19.48
2022-12-28T15:26:06.658Z,19.13
2022-12-28T15:29:00.571Z,17.90
2022-12-28T15:31:52.238Z,18.15
2022-12-28T15:34:39.136Z,18.55
2022-12-28T15:37:22.384Z,18.02
2022-12-28T15:40:05.717Z,18.15
2022-12-28T15:46:34.093Z,17.25
2022-12-28T15:49:35.214Z,18.73
2022-12-28T15:52:22.782Z,18.30
2022-12-28T15:55:32.648Z,18.05
2022-12-28T15:59:04.160Z,18.33
2022-12-28T16:01:58.863Z,18.33
2022-12-28T16:05:29.873Z,19.02
2022-12-28T16:08:54.887Z,19.17
2022-12-28T16:57:00.061Z,16.70
2022-12-28T17:00:35.875Z,17.38
2022-12-28T17:04:14.833Z,18.52
2022-12-28T17:07:31.333Z,15.88
2022-12-28T17:10:33.693Z,16.67
2022-12-28T17:13:09.856Z,17.58
2022-12-28T17:20:08.388Z,17.42
2022-12-28T17:23:14.398Z,17.17
2022-12-28T17:26:10.067Z,16.63
2022-12-28T17:28:57.290Z,16.77
2022-12-28T17:31:41.020Z,16.95
2022-12-28T17:34:32.624Z,15.75
2022-12-28T17:37:52.817Z,16.77
2022-12-28T17:50:53.435Z,14.57
2022-12-28T17:53:53.460Z,15.00
2022-12-28T17:57:19.592Z,14.50
2022-12-28T18:04:26.788Z,14.45
2022-12-28T18:14:45.172Z,13.80
2022-12-28T19:13:23.398Z,15.85
2022-12-28T19:39:18.909Z,18.55
2022-12-28T19:43:28.048Z,18.77
2022-12-28T19:46:32.777Z,18.02
2022-12-28T19:49:23.666Z,18.02
2022-12-28T19:52:10.735Z,18.35
2022-12-28T19:54:44.356Z,18.55
2022-12-28T19:57:15.656Z,18.30
2022-12-28T19:59:46.692Z,17.60
2022-12-28T20:02:25.502Z,17.63
2022-12-28T20:05:15.699Z,17.08
2022-12-28T20:07:46.749Z,17.85
2022-12-28T20:10:34.049Z,17.35
2022-12-28T20:13:23.195Z,16.27
2022-12-28T20:16:37.490Z,16.83
2022-12-28T20:19:13.886Z,16.95
2022-12-28T20:21:43.002Z,16.73
2022-12-28T20:24:21.746Z,17.48
2022-12-28T20:27:01.873Z,17.05
2022-12-28T20:29:32.572Z,16.73
2022-12-28T20:32:26.349Z,16.25
2022-12-28T20:35:31.423Z,15.77
2022-12-28T20:41:39.052Z,16.95
2022-12-28T20:44:36.158Z,17.45
2022-12-28T20:51:05.353Z,17.30
2022-12-28T20:54:19.623Z,17.65
2022-12-28T20:57:42.350Z,17.63
2022-12-28T21:00:38.272Z,18.15
2022-12-28T21:07:25.478Z,17.35
2022-12-28T21:13:43.918Z,18.20
2022-12-28T21:16:15.742Z,18.35
2022-12-28T21:19:02.617Z,18.02
2022-12-28T21:21:35.293Z,18.02
2022-12-28T21:24:23.852Z,18.08
2022-12-28T21:27:26.111Z,17.83
2022-12-28T21:30:33.891Z,18.88
2022-12-28T21:33:33.136Z,18.38
2022-12-28T21:36:47.684Z,19.27
2022-12-28T21:39:40.362Z,18.67
2022-12-28T21:42:27.287Z,18.33
2022-12-28T21:45:38.018Z,18.90
2022-12-28T21:51:52.608Z,19.50
2022-12-28T21:58:00.314Z,17.92
2022-12-28T22:01:04.015Z,18.20
2022-12-28T22:04:33.911Z,17.67
2022-12-28T22:07:42.277Z,18.55
2022-12-28T22:10:40.400Z,19.23
2022-12-28T22:16:26.426Z,19.60
2022-12-28T22:19:09.904Z,19.25
2022-12-28T22:21:54.745Z,18.83
2022-12-28T22:24:46.111Z,19.15
2022-12-28T22:27:17.560Z,18.52
2022-12-28T22:29:46.002Z,18.40
2022-12-28T22:32:54.775Z,18.63
2022-12-28T22:35:34.050Z,18.00
2022-12-28T22:38:22.568Z,18.30
2022-12-28T22:41:26.763Z,17.45
2022-12-28T22:43:58.657Z,18.17
2022-12-28T22:46:42.661Z,17.98
2022-12-28T22:50:30.154Z,17.30
2022-12-28T22:57:38.107Z,17.77
2022-12-28T23:08:19.044Z,17.17
2022-12-28T23:11:29.169Z,17.15
2022-12-28T23:14:43.144Z,17.27
2022-12-28T23:17:19.487Z,17.02
2022-12-28T23:20:10.406Z,16.60
2022-12-28T23:23:18.992Z,17.27
2022-12-28T23:29:54.387Z,17.40
2022-12-28T23:33:42.702Z,18.48
2022-12-28T23:36:37.977Z,17.83
2022-12-28T23:40:05.072Z,18.40
2022-12-28T23:43:02.243Z,17.75
2022-12-28T23:49:10.388Z,17.17
2022-12-28T23:51:55.627Z,17.30
2022-12-28T23:55:27.366Z,17.67
